Cape Lisburne LRRS Airport Cape Lisburne US
ICAO: PALU
IATA:
Category: Medium
Scheduled Services:

Elevation: 16 ft
TransAlt. 18000 ft.

Airport Communications:
ANCHORAGE CNTR:119.65
KOTZEBUE RDO:122.3
CTAF/UNICOM:126.2

PALU Zoom In..

If you have problems with the map follow the link
https://www.worldairports.se/pages/airport.php?
ICAO=PALU

Runways:

(A) RW 08 length 4805 ft width 135 ft
---- / hdg 84

(B) RW 26 length 4805 ft width 135 ft
---- / hdg 264

Location; PALU
Day. 17 / Time. 01.55 Zulu
* Altimeter: 29.88
* Temperature: -07° c. -19.4°f.
* Wind from: 110° Speed 04 kn.
Dewpoint: -15° c.
Visibility: 10 Statute Miles.
Clouds: Broken 11000 ft.
Clouds: Broken 22000 ft.

PALU 170155Z AUTO 11004KT 10SM BKN110 BKN220 M07/M15 A2988 RMK AO2 SLP120 T10731147


Wind From 110°
Speed 04 kn.

 
 
jpsmedia.com for Web Design worldairports.se 2018   terms of use